Yorkton Municipal Airport
CYQV : rendu visible

Aérodrome :











RETROUVEZ-NOUS SUR...

 
LOGIN :

S'inscrire | Disclaimer

   EN    FR    IT 

 









Légende :    VFR   VFR Marginal   IFR   IFR Intensif   IFR Très Intensif
Visi : 
Plafond : 
>= 8 km
>= 3000ft
5 à 8 km
1000 à 3000 ft
1500m à 5 km
500 à 1000 ft
800 à 1500m
200 à 500 ft
< 800m
< 200 ft
Symboles :   Orages  Brouillard  Fortes neiges  Fortes précipitations  Vent > 20 kt






- Altitude de l'aérodrome : 1635 ft
- Code IATA : YQV


CYQV - Yorkton Municipal

DERNIER METAR :
  • 181800Z AUTO 31017KT 1 1/2SM -SN OVC030 M20/M24 A3019 RMK SLP282

METARs EXPIRÉS :
  • 181746Z AUTO 31017G24KT 2 1/2SM -SN FEW029 OVC035 M20/M24 A3019 RMK SLP279
  • 181702Z AUTO 31019KT 5SM -SN BKN037 BKN045 M21/M24 A3017 RMK SLP274
  • 181631Z AUTO 30015G22KT 6SM -SN BKN040 M21/M24 A3017 RMK SLP272
  • 181618Z AUTO 30016G21KT 3SM -SN BKN034 M21/M24 A3016 RMK SLP271
  • 181600Z AUTO 30017G22KT 1 1/2SM -SN OVC030 M21/M24 A3016 RMK SLP270
  • 181520Z AUTO 30015G22KT 2SM -SN OVC032 M21/M24 A3013 RMK PRESFR SLP260
  • 181500Z AUTO 30015G20KT 2 1/2SM -SN OVC034 M21/M24 A3015 RMK PRESRR SLP266

TAF TAF CYQV
Valide du 18 à 18h jusqu'au 19 à 06h UTC


181740Z 1818/1906 31015G25KT 6SM -SN SCT020 OVC040
TEMPO 1818/1822 3SM -SN BKN020 OVC040
FM182200 30015G25KT P6SM BKN040
TEMPO 1822/1906 5SM -SN
BECMG 1903/1905 30012KT RMK FCST BASED ON AUTO OBS. NXT FCST BY 190000Z



MET'MAP, la Météo Aéronautique d'un coup d'oeil ! - Copyright ORBIFLY Décembre 2007 - Disclaimer

ORBIFLY MET'MAP TEAM :

Programmation & Développement : Alexandra Zaïnal
Sur une idée originale de : Baudouin d'Aumeries
Assistance à la programmation : Marc-Olivier Méhu
Soutien technique & logistique : Manuel Goepfert

Contact : metmap@orbifly.com




SOURCES & CREDITS :

   NOAA       Earth
Advisory